Time;durP1;ratioP1;P1;durP2;ratioP2;P2;SDS_P1;SDS_P2;PMS_P1;PMS_P2;Temp;Humidity;BMP_temperature;BMP_pressure;BME280_temperature;BME280_humidity;BME280_pressure;Samples;Min_cycle;Max_cycle;Signal;HPM_P1;HPM_P2
2022/09/03 00:02:02;;;;;;;0.35;0.35;;;14.90;96.50;;;;;;4972700;28;20489;-61
2022/09/03 00:04:39;;;;;;;0.50;0.50;;;15.00;96.40;;;;;;4969868;28;20835;-61
2022/09/03 00:07:16;;;;;;;0.40;0.40;;;15.00;96.40;;;;;;4962871;28;20426;-61
2022/09/03 00:09:49;;;;;;;0.30;0.30;;;15.00;96.40;;;;;;4967545;28;20475;-61
2022/09/03 00:12:43;;;;;;;0.25;0.25;;;14.90;96.40;;;;;;4972205;28;20490;-61
2022/09/03 00:15:15;;;;;;;0.27;0.27;;;14.80;96.70;;;;;;4914385;29;20448;-61
2022/09/03 00:18:08;;;;;;;1.00;0.43;;;14.70;96.90;;;;;;4910575;29;20992;-61
2022/09/03 00:20:54;;;;;;;0.30;0.30;;;14.60;96.90;;;;;;4902725;29;20532;-61
2022/09/03 00:23:24;;;;;;;0.52;0.52;;;14.60;97.10;;;;;;4910743;29;20528;-61
2022/09/03 00:26:19;;;;;;;0.30;0.30;;;14.50;97.10;;;;;;4938850;29;20441;-61
2022/09/03 00:28:55;;;;;;;0.40;0.40;;;14.50;97.20;;;;;;4946707;29;20536;-61
2022/09/03 00:31:41;;;;;;;0.32;0.32;;;14.60;97.30;;;;;;4934763;28;20460;-61
2022/09/03 00:34:26;;;;;;;0.30;0.30;;;14.60;97.30;;;;;;4940585;29;20435;-61
2022/09/03 00:36:53;;;;;;;0.20;0.20;;;14.60;97.20;;;;;;4946921;29;20431;-61
2022/09/03 00:39:26;;;;;;;0.30;0.30;;;14.70;97.30;;;;;;4942664;29;20509;-60
2022/09/03 00:42:31;;;;;;;0.40;0.40;;;14.70;97.30;;;;;;4942962;28;20512;-60
2022/09/03 00:45:29;;;;;;;0.40;0.40;;;14.80;97.20;;;;;;4944424;28;20517;-60
2022/09/03 00:48:25;;;;;;;0.30;0.30;;;14.80;97.10;;;;;;4937045;29;20476;-61
2022/09/03 00:51:19;;;;;;;0.40;0.40;;;14.90;97.10;;;;;;4942358;28;20857;-61
2022/09/03 00:53:55;;;;;;;0.30;0.30;;;14.80;97.20;;;;;;5026299;28;20893;-61
2022/09/03 00:56:39;;;;;;;0.40;0.40;;;14.70;97.30;;;;;;5024541;28;20432;-61
2022/09/03 00:59:13;;;;;;;0.40;0.40;;;14.70;97.30;;;;;;5027112;28;20481;-61
2022/09/03 01:01:57;;;;;;;0.20;0.20;;;14.70;97.30;;;;;;5021896;28;20927;-61
2022/09/03 01:04:44;;;;;;;0.32;0.32;;;14.70;97.50;;;;;;5025341;28;20459;-61
2022/09/03 01:07:32;;;;;;;0.40;0.40;;;14.60;97.60;;;;;;5024469;28;20431;-61
2022/09/03 01:10:20;;;;;;;0.40;0.40;;;14.60;97.70;;;;;;5028830;28;20493;-61
2022/09/03 01:13:04;;;;;;;0.40;0.40;;;14.60;97.70;;;;;;5020390;28;20437;-61
2022/09/03 01:15:53;;;;;;;0.80;0.30;;;14.60;97.80;;;;;;5023965;28;20500;-61
2022/09/03 01:18:37;;;;;;;0.30;0.30;;;14.60;97.70;;;;;;5026365;28;20435;-61
2022/09/03 01:21:22;;;;;;;0.50;0.30;;;14.60;97.70;;;;;;5026280;28;20435;-61
2022/09/03 01:24:20;;;;;;;0.32;0.32;;;14.60;97.80;;;;;;5029304;28;20441;-61
2022/09/03 01:27:05;;;;;;;0.32;0.32;;;14.60;97.80;;;;;;5018198;28;20496;-61
2022/09/03 01:29:57;;;;;;;0.40;0.40;;;14.60;97.80;;;;;;5028379;28;20449;-61
2022/09/03 01:32:43;;;;;;;0.30;0.30;;;14.70;97.80;;;;;;5027423;28;20437;-61
2022/09/03 01:35:16;;;;;;;0.68;0.43;;;14.80;97.80;;;;;;5023241;28;20459;-61
2022/09/03 01:37:56;;;;;;;0.40;0.40;;;14.80;97.70;;;;;;5028129;28;20422;-61
2022/09/03 01:40:50;;;;;;;0.82;0.40;;;14.80;97.80;;;;;;5023495;28;20511;-61
2022/09/03 01:43:34;;;;;;;0.30;0.30;;;14.80;97.70;;;;;;5025209;28;20543;-61
2022/09/03 01:46:13;;;;;;;0.30;0.30;;;14.90;97.70;;;;;;5024634;28;20864;-61
2022/09/03 01:49:00;;;;;;;0.40;0.40;;;15.00;97.90;;;;;;5026136;28;20446;-60
2022/09/03 01:51:29;;;;;;;0.30;0.30;;;15.10;97.50;;;;;;5023979;28;20433;-61
2022/09/03 01:54:20;;;;;;;0.30;0.30;;;15.10;97.50;;;;;;5023008;28;20952;-61
2022/09/03 01:57:25;;;;;;;0.30;0.30;;;15.20;97.50;;;;;;5022441;28;20433;-61
2022/09/03 02:00:23;;;;;;;0.30;0.30;;;15.20;97.40;;;;;;5019846;28;20516;-61
2022/09/03 02:02:51;;;;;;;0.40;0.40;;;15.30;97.40;;;;;;5023408;28;20470;-61
2022/09/03 02:05:28;;;;;;;0.30;0.30;;;15.30;97.40;;;;;;5022485;28;20497;-61
2022/09/03 02:08:08;;;;;;;0.30;0.30;;;15.30;97.30;;;;;;5026685;28;20521;-61
2022/09/03 02:10:51;;;;;;;0.43;0.43;;;15.30;97.30;;;;;;5021999;28;20470;-61
2022/09/03 02:13:22;;;;;;;0.33;0.33;;;15.40;97.30;;;;;;5025233;28;20442;-61
2022/09/03 02:15:51;;;;;;;0.40;0.40;;;15.40;97.40;;;;;;5027261;28;20454;-61
2022/09/03 02:18:30;;;;;;;0.40;0.40;;;15.40;97.30;;;;;;5024510;28;20441;-61
2022/09/03 02:20:59;;;;;;;0.38;0.38;;;15.40;97.30;;;;;;5026975;28;20465;-61
2022/09/03 02:23:27;;;;;;;0.50;0.50;;;15.40;97.30;;;;;;5026943;28;21059;-61
2022/09/03 02:26:00;;;;;;;0.30;0.30;;;15.50;97.40;;;;;;5025860;28;20513;-61
2022/09/03 02:28:31;;;;;;;0.40;0.40;;;15.40;97.40;;;;;;5023539;28;20646;-61
2022/09/03 02:30:58;;;;;;;0.35;0.35;;;15.50;97.40;;;;;;5023357;28;20514;-61
2022/09/03 02:33:26;;;;;;;0.40;0.40;;;15.50;97.50;;;;;;5021239;28;20440;-61
2022/09/03 02:35:54;;;;;;;0.30;0.30;;;15.50;97.40;;;;;;5024953;28;20485;-61
2022/09/03 02:38:26;;;;;;;0.40;0.40;;;15.50;97.40;;;;;;5026354;28;20553;-61
2022/09/03 02:40:53;;;;;;;0.68;0.68;;;15.50;97.50;;;;;;5020149;28;20515;-61
2022/09/03 02:43:29;;;;;;;0.45;0.45;;;15.50;97.50;;;;;;5024168;28;20496;-60
2022/09/03 02:46:02;;;;;;;0.40;0.40;;;15.50;97.50;;;;;;5026126;28;22994;-60
2022/09/03 02:48:29;;;;;;;0.40;0.40;;;15.50;97.60;;;;;;5027122;28;20439;-60
2022/09/03 02:50:56;;;;;;;0.40;0.40;;;15.50;97.50;;;;;;5025817;28;20431;-60
2022/09/03 02:53:22;;;;;;;0.30;0.30;;;15.50;97.50;;;;;;5023542;28;20927;-60
2022/09/03 02:55:49;;;;;;;0.30;0.30;;;15.50;97.60;;;;;;5025119;28;20447;-60
2022/09/03 02:58:16;;;;;;;0.40;0.40;;;15.60;97.60;;;;;;5020453;28;20432;-60
2022/09/03 03:00:43;;;;;;;0.30;0.30;;;15.60;97.60;;;;;;5027772;28;20461;-61
2022/09/03 03:03:10;;;;;;;0.35;0.35;;;15.60;97.60;;;;;;5026202;28;20435;-61
2022/09/03 03:05:49;;;;;;;0.43;0.43;;;15.60;97.60;;;;;;5027372;28;21032;-61
2022/09/03 03:08:19;;;;;;;0.40;0.40;;;15.60;97.70;;;;;;5022906;28;20454;-61
2022/09/03 03:10:48;;;;;;;0.30;0.30;;;15.60;97.80;;;;;;5027230;28;20431;-61
2022/09/03 03:13:15;;;;;;;0.23;0.23;;;15.60;97.70;;;;;;5020630;28;20517;-60
2022/09/03 03:15:43;;;;;;;0.30;0.30;;;15.60;97.80;;;;;;5023932;28;20525;-61
2022/09/03 03:18:13;;;;;;;0.30;0.30;;;15.60;97.70;;;;;;5022332;28;20508;-61
2022/09/03 03:20:40;;;;;;;0.80;0.47;;;15.60;97.80;;;;;;5023437;28;20435;-61
2022/09/03 03:23:08;;;;;;;0.50;0.40;;;15.60;97.80;;;;;;5023975;28;20454;-61
2022/09/03 03:25:37;;;;;;;0.30;0.30;;;15.60;97.90;;;;;;5027604;28;20433;-61
2022/09/03 03:28:04;;;;;;;0.30;0.30;;;15.60;98.00;;;;;;5024073;28;20755;-61
2022/09/03 03:30:33;;;;;;;0.40;0.40;;;15.60;98.00;;;;;;5023943;28;20488;-61
2022/09/03 03:33:00;;;;;;;0.40;0.40;;;15.60;98.00;;;;;;5019385;28;20480;-61
2022/09/03 03:35:27;;;;;;;0.38;0.38;;;15.60;98.10;;;;;;5026140;28;20462;-61
2022/09/03 03:37:56;;;;;;;0.47;0.47;;;15.60;98.10;;;;;;5020827;28;20436;-60
2022/09/03 03:40:25;;;;;;;0.30;0.30;;;15.60;98.00;;;;;;5026557;28;21029;-61
2022/09/03 03:42:52;;;;;;;0.40;0.40;;;15.60;98.10;;;;;;5019272;28;20493;-61
2022/09/03 03:45:19;;;;;;;0.30;0.30;;;15.60;98.20;;;;;;5020748;28;20516;-61
2022/09/03 03:47:48;;;;;;;0.75;0.43;;;15.50;98.20;;;;;;5025866;28;20457;-60
2022/09/03 03:50:16;;;;;;;0.20;0.20;;;15.50;98.30;;;;;;5024041;28;21094;-61
2022/09/03 03:52:50;;;;;;;0.35;0.35;;;15.50;98.40;;;;;;5021348;28;20523;-61
2022/09/03 03:55:17;;;;;;;0.30;0.30;;;15.40;98.50;;;;;;5027228;28;20430;-61
2022/09/03 03:57:44;;;;;;;0.33;0.33;;;15.40;98.50;;;;;;5025162;28;20527;-60
2022/09/03 04:00:11;;;;;;;0.45;0.45;;;15.30;98.60;;;;;;5027707;28;20438;-61
2022/09/03 04:02:38;;;;;;;0.55;0.55;;;15.30;98.70;;;;;;5013482;28;20439;-60
2022/09/03 04:05:05;;;;;;;0.30;0.30;;;15.20;98.90;;;;;;5030217;28;21129;-61
2022/09/03 04:07:33;;;;;;;0.50;0.40;;;15.10;98.90;;;;;;5028338;28;20445;-61
2022/09/03 04:09:59;;;;;;;0.30;0.30;;;15.10;99.20;;;;;;5027227;28;20999;-61
2022/09/03 04:12:32;;;;;;;0.40;0.40;;;15.00;99.10;;;;;;5031965;28;20431;-61
2022/09/03 04:14:59;;;;;;;0.30;0.30;;;15.00;99.20;;;;;;5027227;28;20511;-60
2022/09/03 04:17:33;;;;;;;0.40;0.40;;;14.90;99.30;;;;;;5013463;28;20429;-60
2022/09/03 04:20:00;;;;;;;0.40;0.40;;;14.90;99.50;;;;;;5056048;28;20433;-61
2022/09/03 04:22:28;;;;;;;0.40;0.40;;;14.90;99.50;;;;;;5031979;28;20935;-61
2022/09/03 04:24:57;;;;;;;1.70;0.30;;;14.90;99.50;;;;;;5026722;28;20505;-61
2022/09/03 04:27:24;;;;;;;0.25;0.25;;;15.00;99.50;;;;;;5025243;28;20856;-61
2022/09/03 04:29:51;;;;;;;0.25;0.25;;;15.00;99.60;;;;;;5032264;28;20458;-61
2022/09/03 04:35:04;;;;;;;0.40;0.40;;;15.00;99.60;;;;;;5025221;28;20430;-60
2022/09/03 04:37:33;;;;;;;0.30;0.30;;;15.00;99.70;;;;;;5017916;28;20779;-62
2022/09/03 04:40:00;;;;;;;0.40;0.40;;;15.00;99.70;;;;;;5026795;28;20514;-60
2022/09/03 04:42:27;;;;;;;0.40;0.40;;;15.00;99.80;;;;;;5026928;28;20901;-61
2022/09/03 04:44:53;;;;;;;0.40;0.40;;;15.00;99.90;;;;;;5031660;28;20514;-61
2022/09/03 04:47:20;;;;;;;0.30;0.30;;;15.00;99.90;;;;;;5024703;28;20958;-60
2022/09/03 04:49:47;;;;;;;0.45;0.45;;;15.10;99.90;;;;;;5023331;28;20435;-61
2022/09/03 04:52:14;;;;;;;0.30;0.30;;;15.10;99.90;;;;;;5019051;28;20435;-60
2022/09/03 04:54:40;;;;;;;0.30;0.30;;;15.10;99.90;;;;;;5017607;28;20459;-60
2022/09/03 04:57:10;;;;;;;0.40;0.40;;;15.20;99.90;;;;;;5026105;28;20969;-60
2022/09/03 04:59:37;;;;;;;0.40;0.40;;;15.20;99.90;;;;;;5020829;28;20462;-60
2022/09/03 05:02:07;;;;;;;0.82;0.30;;;15.30;99.90;;;;;;5020246;28;20549;-60
2022/09/03 05:04:33;;;;;;;0.40;0.40;;;15.40;99.90;;;;;;5029421;28;20437;-61
2022/09/03 05:07:01;;;;;;;0.40;0.40;;;15.50;99.90;;;;;;5029518;28;20437;-61
2022/09/03 05:09:27;;;;;;;1.60;0.50;;;15.60;99.90;;;;;;5025731;28;20506;-61
2022/09/03 05:11:56;;;;;;;0.30;0.30;;;15.70;99.90;;;;;;5027463;28;20429;-61
2022/09/03 05:14:23;;;;;;;1.20;0.33;;;15.90;99.90;;;;;;5017020;28;20443;-60
2022/09/03 05:16:50;;;;;;;0.50;0.50;;;15.90;99.90;;;;;;5020788;28;20436;-61
2022/09/03 05:19:18;;;;;;;0.30;0.30;;;16.00;99.90;;;;;;5019593;28;20451;-61
2022/09/03 05:21:45;;;;;;;0.30;0.30;;;16.10;99.90;;;;;;5026270;28;20426;-61
2022/09/03 05:24:15;;;;;;;0.30;0.30;;;16.00;99.90;;;;;;5024042;28;20543;-61
2022/09/03 05:26:42;;;;;;;0.52;0.38;;;16.00;99.90;;;;;;5021142;28;20621;-61
2022/09/03 05:29:09;;;;;;;0.40;0.40;;;16.00;99.90;;;;;;5029028;28;20431;-60
2022/09/03 05:31:38;;;;;;;0.30;0.30;;;16.10;99.90;;;;;;5026781;28;20803;-61
2022/09/03 05:34:06;;;;;;;0.30;0.30;;;16.00;99.90;;;;;;5018914;28;20789;-61
2022/09/03 05:36:36;;;;;;;0.30;0.30;;;16.10;99.90;;;;;;5025332;28;20455;-61
2022/09/03 05:39:04;;;;;;;0.30;0.30;;;16.10;99.90;;;;;;5021596;28;20518;-61
2022/09/03 05:41:32;;;;;;;1.00;0.50;;;16.00;99.90;;;;;;5021873;28;20458;-61
2022/09/03 05:44:00;;;;;;;0.30;0.30;;;16.00;99.90;;;;;;5018854;28;20937;-61
2022/09/03 05:46:30;;;;;;;0.30;0.30;;;15.90;99.90;;;;;;5023651;28;20454;-60
2022/09/03 05:49:03;;;;;;;0.30;0.30;;;15.70;99.90;;;;;;5024437;28;20466;-60
2022/09/03 05:51:31;;;;;;;0.43;0.43;;;15.60;99.90;;;;;;5050871;28;20456;-60
2022/09/03 05:53:58;;;;;;;0.40;0.40;;;15.70;99.90;;;;;;5023043;28;20436;-60
2022/09/03 05:56:27;;;;;;;0.60;0.60;;;15.70;99.90;;;;;;5026766;28;20656;-61
2022/09/03 05:58:59;;;;;;;0.50;0.50;;;15.70;99.90;;;;;;5026021;28;20510;-60
2022/09/03 06:01:34;;;;;;;0.30;0.30;;;15.80;99.90;;;;;;5020488;28;20530;-60
2022/09/03 06:04:02;;;;;;;0.40;0.40;;;15.80;99.90;;;;;;5024043;28;20526;-61
2022/09/03 06:06:34;;;;;;;0.32;0.32;;;15.90;99.90;;;;;;5022449;28;20523;-61
2022/09/03 06:09:04;;;;;;;0.40;0.40;;;15.90;99.90;;;;;;5022458;28;20462;-61
2022/09/03 06:11:34;;;;;;;0.20;0.20;;;16.00;99.90;;;;;;5026726;28;20469;-60
2022/09/03 06:14:07;;;;;;;0.35;0.35;;;16.00;99.90;;;;;;5022415;28;20426;-61
2022/09/03 06:16:37;;;;;;;0.30;0.30;;;16.00;99.90;;;;;;5025622;28;20463;-60
2022/09/03 06:19:08;;;;;;;0.60;0.60;;;16.00;99.90;;;;;;5021101;28;20426;-61
2022/09/03 06:21:41;;;;;;;0.40;0.40;;;15.90;99.90;;;;;;5021406;28;20426;-61
2022/09/03 06:24:26;;;;;;;0.40;0.40;;;15.80;99.90;;;;;;5018767;28;20846;-61
2022/09/03 06:26:55;;;;;;;0.25;0.25;;;15.40;99.90;;;;;;5022288;28;20895;-61
2022/09/03 06:29:22;;;;;;;0.55;0.55;;;15.00;99.90;;;;;;5027294;28;20423;-61
2022/09/03 06:31:49;;;;;;;0.40;0.40;;;14.60;99.90;;;;;;5028309;28;20427;-62
2022/09/03 06:34:17;;;;;;;0.30;0.30;;;14.40;99.90;;;;;;5024116;28;20431;-61
2022/09/03 06:36:47;;;;;;;0.57;0.57;;;14.20;99.90;;;;;;5020108;28;20482;-62
2022/09/03 06:39:14;;;;;;;1.38;0.60;;;14.00;99.90;;;;;;5022818;28;20447;-62
2022/09/03 06:41:41;;;;;;;0.35;0.35;;;14.00;99.90;;;;;;5024997;28;21058;-62
2022/09/03 06:44:11;;;;;;;0.40;0.40;;;14.00;99.90;;;;;;5024402;28;20471;-61
2022/09/03 06:46:41;;;;;;;0.40;0.40;;;14.20;99.90;;;;;;5025169;28;20434;-62
2022/09/03 06:49:09;;;;;;;0.47;0.47;;;14.40;99.90;;;;;;5023985;28;20438;-62
2022/09/03 06:51:37;;;;;;;0.47;0.47;;;14.50;99.90;;;;;;5021518;28;20457;-61
2022/09/03 06:54:06;;;;;;;0.40;0.40;;;14.60;99.90;;;;;;5021344;28;20443;-62
2022/09/03 06:56:35;;;;;;;0.50;0.40;;;14.90;99.90;;;;;;5024029;28;20431;-62
2022/09/03 06:59:09;;;;;;;0.30;0.30;;;15.20;99.90;;;;;;5021494;28;20522;-62
2022/09/03 07:01:38;;;;;;;0.40;0.40;;;15.50;99.90;;;;;;5024816;28;20475;-62
2022/09/03 07:04:06;;;;;;;0.30;0.30;;;15.70;99.90;;;;;;5020914;28;20927;-63
2022/09/03 07:06:37;;;;;;;0.50;0.50;;;15.90;99.90;;;;;;5024242;28;20573;-62
2022/09/03 07:09:06;;;;;;;0.57;0.57;;;16.10;99.90;;;;;;5019741;28;20817;-61
2022/09/03 07:11:35;;;;;;;0.40;0.40;;;16.20;99.90;;;;;;5021427;28;20438;-62
2022/09/03 07:14:03;;;;;;;0.70;0.57;;;16.20;99.90;;;;;;5017868;28;20430;-62
2022/09/03 07:16:33;;;;;;;0.47;0.47;;;16.20;99.90;;;;;;5022767;28;21178;-62
2022/09/03 07:19:02;;;;;;;0.45;0.45;;;16.20;99.90;;;;;;5023691;28;20522;-62
2022/09/03 07:21:32;;;;;;;0.30;0.30;;;16.10;99.90;;;;;;5026691;28;20925;-62
2022/09/03 07:23:59;;;;;;;1.00;0.47;;;16.10;99.90;;;;;;5021722;28;20438;-61
2022/09/03 07:26:29;;;;;;;0.40;0.40;;;15.90;99.90;;;;;;5019894;28;20486;-62
2022/09/03 07:28:57;;;;;;;0.50;0.50;;;15.70;99.90;;;;;;5024039;28;20458;-63
2022/09/03 07:31:28;;;;;;;0.45;0.45;;;15.30;99.90;;;;;;5023257;28;20438;-62
2022/09/03 07:33:56;;;;;;;0.70;0.70;;;14.90;99.90;;;;;;5029456;28;20850;-63
2022/09/03 07:36:25;;;;;;;0.47;0.47;;;14.60;99.90;;;;;;5023676;28;20450;-64
2022/09/03 07:38:57;;;;;;;0.60;0.60;;;14.40;99.90;;;;;;5028906;28;20427;-64
2022/09/03 07:41:26;;;;;;;0.50;0.50;;;14.30;99.90;;;;;;5023616;28;20440;-64
2022/09/03 07:43:55;;;;;;;0.90;0.70;;;14.20;99.90;;;;;;5025614;28;20529;-63
2022/09/03 07:46:26;;;;;;;0.45;0.45;;;14.20;99.90;;;;;;5022871;28;20473;-63
2022/09/03 07:48:56;;;;;;;0.50;0.50;;;14.20;99.90;;;;;;5024271;28;20549;-63
2022/09/03 07:51:27;;;;;;;0.40;0.40;;;14.20;99.90;;;;;;5028375;28;20436;-63
2022/09/03 07:53:56;;;;;;;1.13;0.63;;;14.20;99.90;;;;;;5025874;28;20519;-64
2022/09/03 07:56:24;;;;;;;0.63;0.63;;;14.20;99.90;;;;;;5023050;28;20877;-64
2022/09/03 07:58:51;;;;;;;0.50;0.50;;;14.30;99.90;;;;;;5024628;28;20445;-64
2022/09/03 08:01:20;;;;;;;0.40;0.40;;;14.40;99.90;;;;;;5027119;28;20431;-64
2022/09/03 08:03:49;;;;;;;0.40;0.40;;;14.50;99.90;;;;;;5024231;28;21004;-64
2022/09/03 08:06:18;;;;;;;0.90;0.52;;;14.60;99.90;;;;;;5030461;28;20427;-64
2022/09/03 08:08:46;;;;;;;0.50;0.50;;;14.80;99.90;;;;;;5025085;28;20430;-64
2022/09/03 08:11:20;;;;;;;0.40;0.40;;;15.00;99.90;;;;;;5022570;28;20436;-64
2022/09/03 08:14:05;;;;;;;0.57;0.57;;;15.00;99.90;;;;;;5020652;28;20441;-66
2022/09/03 08:16:35;;;;;;;0.50;0.50;;;15.20;99.90;;;;;;5023873;28;20469;-64
2022/09/03 08:19:03;;;;;;;0.30;0.30;;;15.30;99.90;;;;;;5018992;28;20434;-65
2022/09/03 08:21:31;;;;;;;0.50;0.50;;;15.40;99.90;;;;;;5018127;28;20515;-65
2022/09/03 08:24:07;;;;;;;0.40;0.40;;;15.50;99.90;;;;;;5027740;28;20453;-64
2022/09/03 08:26:36;;;;;;;0.40;0.40;;;15.90;99.90;;;;;;5022870;28;20431;-65
2022/09/03 08:29:04;;;;;;;0.40;0.40;;;16.70;99.90;;;;;;5019830;28;20522;-65
2022/09/03 08:31:31;;;;;;;0.50;0.50;;;17.00;99.90;;;;;;5023255;28;20514;-66
2022/09/03 08:34:03;;;;;;;0.68;0.68;;;17.50;99.90;;;;;;5020479;28;20438;-64
2022/09/03 08:36:32;;;;;;;0.60;0.60;;;18.50;99.90;;;;;;5025297;28;20523;-64
2022/09/03 08:39:03;;;;;;;0.50;0.50;;;19.20;99.90;;;;;;5026916;28;20510;-64
2022/09/03 20:12:34;;;;;;;1.20;0.20;;;14.30;99.90;;;;;;5090118;28;20923;-79
2022/09/03 20:15:05;;;;;;;0.17;0.17;;;14.20;99.90;;;;;;5071809;28;20501;-78
2022/09/03 20:17:54;;;;;;;0.20;0.20;;;14.20;99.90;;;;;;5074856;28;20435;-79
2022/09/03 20:20:35;;;;;;;0.10;0.10;;;14.10;99.90;;;;;;5067838;28;20458;-79
2022/09/03 20:23:28;;;;;;;0.10;0.10;;;14.00;99.90;;;;;;5068157;28;20508;-80
2022/09/03 20:26:22;;;;;;;0.20;0.20;;;13.90;99.90;;;;;;5072339;28;20439;-79
2022/09/03 20:29:16;;;;;;;0.10;0.10;;;13.90;99.90;;;;;;5055087;28;20435;-79
2022/09/03 20:31:57;;;;;;;0.20;0.20;;;14.00;99.90;;;;;;5063151;28;21374;-80
2022/09/03 20:35:16;;;;;;;0.20;0.17;;;14.00;99.90;;;;;;5060339;28;20435;-81
2022/09/03 20:38:13;;;;;;;0.10;0.10;;;13.90;99.90;;;;;;5061256;28;20430;-79
2022/09/03 20:40:53;;;;;;;0.20;0.20;;;13.90;99.90;;;;;;5073056;28;20765;-79
2022/09/03 20:43:39;;;;;;;0.20;0.20;;;14.00;99.90;;;;;;5086090;28;20933;-80
2022/09/03 20:46:17;;;;;;;0.20;0.20;;;13.90;99.90;;;;;;5072091;28;20458;-79
2022/09/03 20:49:09;;;;;;;0.00;0.00;;;13.80;99.90;;;;;;5063968;28;20448;-80
2022/09/03 20:51:51;;;;;;;0.00;0.00;;;13.80;99.90;;;;;;5070694;28;20518;-80
2022/09/03 20:54:31;;;;;;;0.10;0.10;;;13.90;99.90;;;;;;5073192;28;20530;-80
2022/09/03 20:57:19;;;;;;;0.20;0.20;;;13.80;99.90;;;;;;5076543;28;21293;-79
2022/09/03 21:00:09;;;;;;;0.13;0.13;;;13.80;99.90;;;;;;5066855;28;20439;-80
2022/09/03 21:02:51;;;;;;;0.10;0.10;;;13.60;99.90;;;;;;5085868;28;20441;-80
2022/09/03 21:05:57;;;;;;;0.40;0.40;;;13.70;99.90;;;;;;5092717;28;20430;-80
2022/09/03 21:08:53;;;;;;;0.10;0.10;;;13.70;99.90;;;;;;5069764;28;20439;-80
2022/09/03 21:11:35;;;;;;;0.13;0.13;;;13.60;99.90;;;;;;5071004;28;20505;-80
2022/09/03 21:14:08;;;;;;;0.13;0.13;;;13.70;99.90;;;;;;5059989;28;20523;-81
2022/09/03 21:16:45;;;;;;;0.30;0.30;;;13.70;99.90;;;;;;5067969;28;20995;-80
2022/09/03 21:19:21;;;;;;;0.43;0.43;;;13.60;99.90;;;;;;5088154;28;20433;-80
2022/09/03 21:22:00;;;;;;;0.20;0.20;;;13.60;99.90;;;;;;5074101;28;20438;-80
2022/09/03 21:24:42;;;;;;;0.20;0.20;;;13.70;99.90;;;;;;5084978;28;20428;-80
2022/09/03 21:27:19;;;;;;;0.20;0.10;;;13.60;99.90;;;;;;5063341;28;20428;-81
2022/09/03 21:30:00;;;;;;;0.10;0.10;;;13.60;99.90;;;;;;5086356;28;20456;-80
2022/09/03 21:32:43;;;;;;;0.22;0.22;;;13.40;99.90;;;;;;5067563;28;20433;-81
2022/09/03 21:35:37;;;;;;;0.20;0.20;;;13.40;99.90;;;;;;5067314;28;20440;-81
2022/09/03 21:38:18;;;;;;;0.20;0.20;;;13.30;99.90;;;;;;5080510;28;20609;-80
2022/09/03 21:40:59;;;;;;;0.20;0.20;;;13.30;99.90;;;;;;5069133;28;20902;-80
2022/09/03 21:43:31;;;;;;;0.20;0.20;;;13.30;99.90;;;;;;5067476;28;20436;-80
2022/09/03 21:46:31;;;;;;;0.10;0.10;;;13.20;99.90;;;;;;5081789;28;20425;-80
2022/09/03 21:49:16;;;;;;;0.20;0.20;;;13.10;99.90;;;;;;5037244;28;20434;-80
2022/09/03 21:51:58;;;;;;;0.40;0.30;;;13.10;99.90;;;;;;5062544;28;21116;-80
2022/09/03 21:54:32;;;;;;;0.47;0.10;;;13.10;99.90;;;;;;5068231;28;20431;-80
2022/09/03 21:57:27;;;;;;;0.40;0.40;;;13.20;99.90;;;;;;5062004;28;20478;-79
2022/09/03 22:00:31;;;;;;;0.17;0.17;;;13.20;99.90;;;;;;5072548;28;20446;-79
2022/09/03 22:03:07;;;;;;;2.80;0.40;;;13.20;99.90;;;;;;5085743;28;20496;-79
2022/09/03 22:05:47;;;;;;;0.25;0.25;;;13.20;99.90;;;;;;5069695;28;20481;-79
2022/09/03 22:08:23;;;;;;;0.70;0.30;;;13.10;99.90;;;;;;5071441;28;20510;-79
2022/09/03 22:11:02;;;;;;;0.40;0.40;;;13.10;99.90;;;;;;5050340;28;20421;-79
2022/09/03 22:13:37;;;;;;;0.30;0.30;;;13.10;99.90;;;;;;5050676;28;20443;-79
2022/09/03 22:16:12;;;;;;;0.70;0.70;;;13.00;99.90;;;;;;5078369;28;20436;-79
2022/09/03 22:18:39;;;;;;;0.32;0.32;;;12.90;99.90;;;;;;5066381;28;20439;-79
2022/09/03 22:21:24;;;;;;;0.32;0.32;;;13.00;99.90;;;;;;5069346;28;20435;-79
2022/09/03 22:24:13;;;;;;;0.45;0.45;;;13.00;99.90;;;;;;5063524;28;20420;-79
2022/09/03 22:26:55;;;;;;;0.90;0.80;;;13.10;99.90;;;;;;5084639;28;20433;-80
2022/09/03 22:29:30;;;;;;;0.38;0.20;;;13.20;99.90;;;;;;5084164;28;20426;-80
2022/09/03 22:32:29;;;;;;;0.20;0.20;;;13.10;99.90;;;;;;5055009;28;20423;-79
2022/09/03 22:35:19;;;;;;;0.28;0.28;;;13.10;99.90;;;;;;5069336;28;20434;-80
2022/09/03 22:38:12;;;;;;;0.25;0.25;;;13.20;99.90;;;;;;5073846;28;20448;-79
2022/09/03 22:41:19;;;;;;;0.30;0.30;;;13.10;99.90;;;;;;5071066;28;20518;-80
2022/09/03 22:44:03;;;;;;;1.10;0.40;;;13.10;99.90;;;;;;5034187;28;21087;-79
2022/09/03 22:46:45;;;;;;;0.40;0.40;;;13.00;99.90;;;;;;5081288;28;21036;-79
2022/09/03 22:49:35;;;;;;;0.20;0.20;;;13.00;99.90;;;;;;5106451;28;21020;-79
2022/09/03 22:52:11;;;;;;;0.25;0.20;;;12.90;99.90;;;;;;5069670;28;20607;-79
2022/09/03 22:54:55;;;;;;;0.30;0.30;;;12.90;99.90;;;;;;5068812;28;20419;-79
2022/09/03 22:57:27;;;;;;;0.30;0.30;;;13.00;99.90;;;;;;5073896;28;20919;-79
2022/09/03 23:00:14;;;;;;;1.50;0.30;;;13.00;99.90;;;;;;5089657;28;20914;-79
2022/09/03 23:02:41;;;;;;;0.10;0.10;;;12.90;99.90;;;;;;5070798;28;20432;-79
2022/09/03 23:05:53;;;;;;;0.55;0.47;;;12.80;99.90;;;;;;5088892;28;20915;-79
2022/09/03 23:08:38;;;;;;;0.30;0.30;;;12.80;99.90;;;;;;5016895;28;20484;-79
2022/09/03 23:11:25;;;;;;;0.13;0.13;;;12.90;99.90;;;;;;5070084;28;20594;-79
2022/09/03 23:14:14;;;;;;;0.38;0.38;;;12.90;99.90;;;;;;5089753;28;20434;-79
2022/09/03 23:16:55;;;;;;;0.30;0.30;;;12.90;99.90;;;;;;5091698;28;20428;-79
2022/09/03 23:19:35;;;;;;;0.30;0.30;;;12.90;99.90;;;;;;5065639;28;20512;-79
2022/09/03 23:22:13;;;;;;;0.40;0.40;;;12.90;99.90;;;;;;5070128;28;20471;-79
2022/09/03 23:25:01;;;;;;;0.30;0.30;;;12.90;99.90;;;;;;5080733;28;20433;-78
2022/09/03 23:27:38;;;;;;;0.30;0.30;;;12.90;99.90;;;;;;5068008;28;20423;-79
2022/09/03 23:30:06;;;;;;;0.20;0.20;;;12.80;99.90;;;;;;5072148;28;20793;-79
2022/09/03 23:32:33;;;;;;;0.50;0.50;;;12.80;99.90;;;;;;5092055;28;20899;-79
2022/09/03 23:35:10;;;;;;;0.35;0.30;;;12.80;99.90;;;;;;5071852;28;20489;-79
2022/09/03 23:38:01;;;;;;;0.30;0.30;;;12.80;99.90;;;;;;5068592;28;20526;-79
2022/09/03 23:40:41;;;;;;;0.40;0.40;;;12.80;99.90;;;;;;5084342;28;20513;-78
2022/09/03 23:43:17;;;;;;;0.20;0.20;;;12.80;99.90;;;;;;5070142;28;20439;-79
2022/09/03 23:46:02;;;;;;;0.30;0.20;;;12.80;99.90;;;;;;5056200;28;20921;-79
2022/09/03 23:49:07;;;;;;;0.17;0.17;;;12.80;99.90;;;;;;5055082;28;20461;-79
2022/09/03 23:51:52;;;;;;;0.30;0.30;;;12.70;99.90;;;;;;5055097;28;20441;-79
2022/09/03 23:54:41;;;;;;;0.40;0.40;;;12.80;99.90;;;;;;5066004;28;20438;-79
2022/09/03 23:57:39;;;;;;;0.35;0.35;;;12.70;99.90;;;;;;5099426;28;20432;-79
